createdAt,value
2022-10-05T00:01:21.742Z,24.83
2022-10-05T00:03:50.094Z,26.20
2022-10-05T00:06:19.901Z,35.20
2022-10-05T00:08:48.063Z,26.07
2022-10-05T00:11:18.626Z,23.17
2022-10-05T00:13:47.175Z,27.73
2022-10-05T00:16:19.121Z,25.87
2022-10-05T00:18:49.917Z,29.67
2022-10-05T00:21:22.386Z,26.53
2022-10-05T00:23:52.562Z,29.43
2022-10-05T00:26:22.906Z,29.20
2022-10-05T00:28:51.804Z,25.73
2022-10-05T00:31:23.141Z,24.20
2022-10-05T00:33:52.030Z,23.87
2022-10-05T00:36:21.600Z,27.30
2022-10-05T00:38:49.895Z,29.07
2022-10-05T00:41:24.199Z,22.03
2022-10-05T00:44:18.153Z,36.20
2022-10-05T00:46:55.525Z,67.30
2022-10-05T00:49:40.339Z,85.47
2022-10-05T00:52:22.853Z,108.43
2022-10-05T00:55:00.802Z,132.80
2022-10-05T00:57:41.809Z,145.87
2022-10-05T01:00:13.465Z,169.47
2022-10-05T01:02:53.560Z,198.03
2022-10-05T01:05:40.116Z,215.43
2022-10-05T01:08:22.287Z,166.67
2022-10-05T01:11:02.042Z,123.80
2022-10-05T01:13:35.676Z,81.03
2022-10-05T01:16:12.172Z,43.77
2022-10-05T01:18:48.464Z,58.77
2022-10-05T01:21:20.511Z,32.27
2022-10-05T01:24:31.857Z,41.60
2022-10-05T01:27:14.322Z,83.97
2022-10-05T01:29:50.568Z,68.90
2022-10-05T01:32:26.920Z,59.57
2022-10-05T01:35:05.293Z,40.37
2022-10-05T01:37:43.011Z,36.17
2022-10-05T01:40:20.298Z,34.43
2022-10-05T01:42:59.789Z,31.97
2022-10-05T01:45:37.909Z,27.20
2022-10-05T01:48:10.281Z,23.23
2022-10-05T01:50:53.244Z,25.00
2022-10-05T01:53:35.946Z,24.13
2022-10-05T01:56:11.978Z,22.67
2022-10-05T01:58:49.827Z,19.43
2022-10-05T02:01:27.747Z,16.83
2022-10-05T02:04:03.800Z,16.60
2022-10-05T02:06:37.635Z,17.33
2022-10-05T02:09:12.641Z,22.33
2022-10-05T02:11:43.624Z,23.73
2022-10-05T02:14:14.284Z,21.67
2022-10-05T02:16:47.534Z,22.73
2022-10-05T02:19:21.671Z,39.97
2022-10-05T02:21:53.235Z,57.60
2022-10-05T02:24:25.972Z,65.80
2022-10-05T02:26:56.874Z,63.17
2022-10-05T02:29:29.273Z,57.10
2022-10-05T02:32:05.214Z,47.13
2022-10-05T02:34:39.233Z,46.87
2022-10-05T02:37:27.373Z,35.37
2022-10-05T02:40:20.556Z,30.77
2022-10-05T02:42:57.982Z,23.83
2022-10-05T02:45:39.454Z,24.30
2022-10-05T02:48:16.124Z,24.53
2022-10-05T02:50:55.205Z,27.20
2022-10-05T02:53:34.620Z,24.33
2022-10-05T02:56:14.163Z,22.03
2022-10-05T02:58:46.983Z,21.50
2022-10-05T03:01:24.787Z,27.70
2022-10-05T03:04:05.450Z,26.87
2022-10-05T03:06:39.203Z,30.70
2022-10-05T03:09:09.890Z,31.23
2022-10-05T03:11:47.798Z,29.87
2022-10-05T03:14:24.326Z,20.93
2022-10-05T03:17:06.900Z,23.97
2022-10-05T03:19:51.869Z,16.47
2022-10-05T03:22:34.743Z,12.33
2022-10-05T03:25:41.655Z,11.13
2022-10-05T03:28:16.868Z,17.83
2022-10-05T03:30:52.957Z,11.90
2022-10-05T03:33:29.638Z,13.20
2022-10-05T03:36:12.448Z,15.10
2022-10-05T03:38:45.019Z,21.37
2022-10-05T03:41:21.361Z,22.10
2022-10-05T03:44:20.518Z,24.33
2022-10-05T03:47:05.686Z,36.87
2022-10-05T03:49:48.657Z,41.67
2022-10-05T03:52:23.213Z,40.30
2022-10-05T03:54:56.963Z,27.67
2022-10-05T03:57:29.183Z,25.03
2022-10-05T04:00:05.355Z,24.93
2022-10-05T04:02:49.169Z,22.83
2022-10-05T04:05:21.714Z,22.13
2022-10-05T04:07:57.697Z,24.03
2022-10-05T04:10:29.331Z,23.80
2022-10-05T04:13:04.308Z,22.07
2022-10-05T04:15:40.237Z,23.53
2022-10-05T04:18:20.902Z,23.03
2022-10-05T04:20:55.384Z,22.83
2022-10-05T04:23:39.056Z,22.67
2022-10-05T04:26:11.824Z,26.33
2022-10-05T04:28:49.800Z,28.40
2022-10-05T04:31:40.379Z,31.87
2022-10-05T04:34:20.274Z,44.60
2022-10-05T04:36:56.804Z,68.00
2022-10-05T04:39:38.962Z,65.20
2022-10-05T04:42:17.645Z,92.47
2022-10-05T04:45:03.420Z,85.67
2022-10-05T04:47:55.714Z,87.60
2022-10-05T04:50:35.403Z,83.47
2022-10-05T04:53:19.507Z,85.23
2022-10-05T04:55:57.320Z,87.73
2022-10-05T04:58:42.268Z,82.27
2022-10-05T05:01:25.901Z,85.70
2022-10-05T05:04:13.266Z,117.00
2022-10-05T05:06:53.815Z,90.00
2022-10-05T05:09:45.239Z,79.10
2022-10-05T05:12:26.074Z,81.17
2022-10-05T05:15:13.757Z,64.50
2022-10-05T05:17:55.752Z,64.00
2022-10-05T05:20:32.352Z,61.03
2022-10-05T05:23:10.784Z,56.07
2022-10-05T05:25:48.405Z,101.67
2022-10-05T05:28:29.281Z,73.03
2022-10-05T05:31:06.580Z,79.43
2022-10-05T05:33:44.473Z,77.27
2022-10-05T05:36:29.569Z,76.53
2022-10-05T05:39:24.530Z,60.90
2022-10-05T05:42:01.554Z,58.80
2022-10-05T05:44:38.906Z,82.90
2022-10-05T05:47:19.073Z,48.03
2022-10-05T05:50:07.402Z,51.63
2022-10-05T05:52:42.724Z,94.57
2022-10-05T05:55:29.041Z,59.23
2022-10-05T05:58:56.066Z,63.40
2022-10-05T06:20:30.195Z,99.07
2022-10-05T06:23:42.813Z,114.90
2022-10-05T06:27:49.226Z,69.07
2022-10-05T06:31:11.308Z,63.20
2022-10-05T06:33:59.173Z,63.53
2022-10-05T06:36:46.823Z,28.70
2022-10-05T06:39:39.078Z,26.40
2022-10-05T06:42:26.637Z,24.07
2022-10-05T06:45:21.882Z,24.20
2022-10-05T06:48:08.012Z,22.43
2022-10-05T06:51:03.609Z,19.43
2022-10-05T06:53:56.879Z,27.70
2022-10-05T06:56:33.276Z,17.13
2022-10-05T06:59:10.416Z,54.10
2022-10-05T07:01:54.215Z,34.53
2022-10-05T07:04:43.806Z,11.30
2022-10-05T07:07:19.613Z,11.70
2022-10-05T07:09:59.924Z,10.80
2022-10-05T07:12:44.701Z,8.50
2022-10-05T07:15:41.084Z,11.37
2022-10-05T07:18:33.479Z,8.87
2022-10-05T07:21:10.964Z,8.60
2022-10-05T07:23:51.947Z,10.73
2022-10-05T07:26:32.356Z,15.07
2022-10-05T07:29:29.605Z,13.63
2022-10-05T07:32:07.883Z,28.77
2022-10-05T07:34:46.567Z,44.30
2022-10-05T07:37:38.426Z,99.27
2022-10-05T07:40:13.328Z,642.27
2022-10-05T07:43:04.121Z,871.83
2022-10-05T07:45:41.519Z,816.13
2022-10-05T07:48:18.073Z,693.63
2022-10-05T07:50:59.669Z,834.87
2022-10-05T07:53:33.834Z,999.90
2022-10-05T07:56:10.379Z,999.90
2022-10-05T07:58:44.881Z,999.90
2022-10-05T08:01:19.262Z,999.90
2022-10-05T08:03:55.320Z,999.90
2022-10-05T08:06:51.617Z,999.90
2022-10-05T08:09:38.649Z,999.90
2022-10-05T08:12:24.760Z,999.90
2022-10-05T08:14:58.942Z,999.90
2022-10-05T08:17:39.476Z,999.90
2022-10-05T08:20:22.861Z,999.90
2022-10-05T08:23:01.912Z,999.90
2022-10-05T08:25:47.412Z,999.90
2022-10-05T08:28:51.753Z,999.90
2022-10-05T08:31:55.392Z,999.90
2022-10-05T08:34:32.042Z,999.90
2022-10-05T08:37:10.376Z,999.90
2022-10-05T08:39:42.576Z,999.90
2022-10-05T08:42:44.633Z,999.90
2022-10-05T08:45:36.337Z,999.90
2022-10-05T08:48:26.670Z,999.90
2022-10-05T08:51:12.218Z,999.90
2022-10-05T08:54:31.040Z,999.90
2022-10-05T08:57:23.216Z,999.90
2022-10-05T09:00:10.467Z,999.90
2022-10-05T09:03:00.164Z,999.90
2022-10-05T09:05:50.833Z,999.90
2022-10-05T09:08:58.641Z,999.90
2022-10-05T09:11:31.866Z,999.90
2022-10-05T09:14:14.358Z,999.90
2022-10-05T09:16:58.089Z,999.90
2022-10-05T09:20:07.388Z,999.90
2022-10-05T09:22:46.662Z,999.90
2022-10-05T09:25:22.608Z,999.90
2022-10-05T09:27:56.686Z,999.90
2022-10-05T09:30:48.616Z,999.90
2022-10-05T09:33:47.480Z,999.90
2022-10-05T09:37:06.891Z,999.90
2022-10-05T09:40:08.592Z,999.90
2022-10-05T09:43:11.374Z,999.90
2022-10-05T09:45:59.063Z,999.90
2022-10-05T09:49:02.251Z,999.90
2022-10-05T09:52:18.755Z,999.90
2022-10-05T09:55:19.955Z,999.90
2022-10-05T09:58:28.313Z,999.90
2022-10-05T10:01:32.625Z,999.90
2022-10-05T10:04:24.716Z,999.90
2022-10-05T10:07:26.558Z,999.90
2022-10-05T10:10:21.359Z,999.90
2022-10-05T10:13:13.740Z,999.90
2022-10-05T10:16:04.899Z,999.90
2022-10-05T10:19:15.156Z,999.90
2022-10-05T10:22:06.798Z,999.90
2022-10-05T10:24:54.685Z,999.90
2022-10-05T10:27:51.576Z,999.90
2022-10-05T10:30:47.625Z,999.90
2022-10-05T10:33:55.851Z,999.90
2022-10-05T10:36:43.916Z,999.90
2022-10-05T10:39:22.020Z,999.90
2022-10-05T10:42:26.455Z,999.90
2022-10-05T10:45:06.632Z,999.90
2022-10-05T10:48:02.130Z,999.90
2022-10-05T10:51:07.525Z,999.90
2022-10-05T10:54:12.135Z,999.90
2022-10-05T10:56:51.862Z,999.90
2022-10-05T10:59:44.835Z,999.90
2022-10-05T11:02:50.975Z,999.90
2022-10-05T11:05:33.392Z,999.90
2022-10-05T11:08:39.557Z,999.90
2022-10-05T11:11:36.234Z,999.90
2022-10-05T11:14:24.144Z,999.90
2022-10-05T11:17:20.320Z,999.90
2022-10-05T11:20:04.555Z,999.90
2022-10-05T11:22:55.447Z,999.90
2022-10-05T11:25:56.345Z,999.90
2022-10-05T11:28:41.755Z,999.90
2022-10-05T11:31:37.760Z,999.90
2022-10-05T11:34:39.401Z,999.90
2022-10-05T11:37:31.788Z,999.90
2022-10-05T11:40:41.234Z,999.90
2022-10-05T11:43:48.452Z,999.90
2022-10-05T11:46:23.296Z,999.90
2022-10-05T11:49:02.298Z,999.90
2022-10-05T11:51:39.353Z,999.90
2022-10-05T11:54:26.277Z,999.90
2022-10-05T11:57:00.556Z,999.90
2022-10-05T11:59:35.631Z,999.90
2022-10-05T12:02:18.307Z,999.90
2022-10-05T12:04:53.928Z,999.90
2022-10-05T12:07:29.426Z,999.90
2022-10-05T12:10:29.064Z,999.90
2022-10-05T12:13:11.042Z,999.90
2022-10-05T12:15:51.298Z,999.90
2022-10-05T12:18:24.930Z,999.90
2022-10-05T12:21:01.226Z,999.90
2022-10-05T12:23:37.868Z,999.90
2022-10-05T12:26:16.668Z,999.90
2022-10-05T12:28:48.607Z,999.90
2022-10-05T12:31:36.934Z,999.90
2022-10-05T12:34:16.949Z,999.90
2022-10-05T12:37:04.184Z,999.90
2022-10-05T12:39:42.471Z,999.90
2022-10-05T12:42:32.363Z,999.90
2022-10-05T12:45:49.235Z,999.90
2022-10-05T12:48:37.469Z,999.90
2022-10-05T12:51:15.577Z,999.90
2022-10-05T12:53:53.835Z,999.90
2022-10-05T12:56:33.974Z,999.90
2022-10-05T12:59:14.269Z,999.90
2022-10-05T13:01:48.175Z,999.90
2022-10-05T13:04:25.774Z,999.90
2022-10-05T13:07:14.695Z,999.90
2022-10-05T13:09:49.978Z,999.90
2022-10-05T13:12:35.387Z,999.90
2022-10-05T13:15:15.605Z,999.90
2022-10-05T13:17:51.319Z,999.90
2022-10-05T13:20:28.071Z,999.90
2022-10-05T13:23:03.205Z,999.90
2022-10-05T13:25:35.788Z,999.90
2022-10-05T13:28:17.294Z,999.90
2022-10-05T13:30:58.829Z,999.90
2022-10-05T13:33:41.539Z,999.90
2022-10-05T13:36:17.284Z,999.90
2022-10-05T13:38:58.519Z,999.90
2022-10-05T13:41:39.206Z,999.90
2022-10-05T13:44:19.909Z,999.90
2022-10-05T13:46:56.270Z,999.90
2022-10-05T13:49:28.945Z,999.90
2022-10-05T13:52:07.595Z,999.90
2022-10-05T13:54:43.895Z,999.90
2022-10-05T13:57:22.494Z,999.90
2022-10-05T13:59:54.934Z,999.90
2022-10-05T14:02:29.645Z,999.90
2022-10-05T14:05:02.864Z,999.90
2022-10-05T14:07:34.310Z,999.90
2022-10-05T14:10:04.610Z,999.90
2022-10-05T14:12:41.233Z,999.90
2022-10-05T14:15:22.194Z,999.90
2022-10-05T14:17:52.729Z,999.90
2022-10-05T14:20:25.664Z,999.90
2022-10-05T14:22:58.312Z,999.90
2022-10-05T14:25:28.245Z,999.90
2022-10-05T14:28:25.265Z,999.90
2022-10-05T14:30:59.489Z,999.90
2022-10-05T14:33:31.200Z,999.90
2022-10-05T14:36:00.204Z,999.90
2022-10-05T14:38:30.295Z,999.90
2022-10-05T14:41:15.828Z,999.90
2022-10-05T14:43:53.375Z,999.90
2022-10-05T14:46:28.288Z,999.90
2022-10-05T14:49:18.040Z,999.90
2022-10-05T14:51:46.260Z,999.90
2022-10-05T14:54:25.731Z,999.90
2022-10-05T14:57:05.036Z,999.90
2022-10-05T15:00:00.243Z,999.90
2022-10-05T15:02:52.470Z,999.90
2022-10-05T15:05:31.258Z,999.90
2022-10-05T15:08:08.655Z,999.90
2022-10-05T15:10:43.509Z,999.90
2022-10-05T15:13:17.252Z,999.90
2022-10-05T15:15:51.970Z,999.90
2022-10-05T15:18:32.014Z,999.90
2022-10-05T15:21:17.308Z,999.90
2022-10-05T15:23:53.207Z,999.90
2022-10-05T15:26:37.216Z,999.90
2022-10-05T15:29:16.194Z,999.90
2022-10-05T15:31:52.957Z,999.90
2022-10-05T15:34:27.857Z,999.90
2022-10-05T15:37:08.189Z,999.90
2022-10-05T15:39:41.502Z,999.90
2022-10-05T15:42:15.200Z,999.90
2022-10-05T15:44:54.028Z,999.90
2022-10-05T15:47:26.790Z,999.90
2022-10-05T15:50:03.390Z,999.90
2022-10-05T15:52:38.616Z,999.90
2022-10-05T15:55:35.179Z,999.90
2022-10-05T15:58:38.699Z,999.90
2022-10-05T16:01:12.518Z,999.90
2022-10-05T16:03:49.808Z,999.90
2022-10-05T16:06:44.828Z,999.90
2022-10-05T16:09:34.398Z,999.90
2022-10-05T16:12:14.899Z,999.90
2022-10-05T16:15:06.479Z,999.90
2022-10-05T16:17:48.011Z,999.90
2022-10-05T16:20:30.240Z,999.90
2022-10-05T16:23:07.936Z,768.20
2022-10-05T16:25:46.204Z,326.13
2022-10-05T16:28:29.135Z,794.27
2022-10-05T16:31:03.854Z,938.43
2022-10-05T16:33:54.286Z,999.90
2022-10-05T16:36:36.830Z,999.90
2022-10-05T16:39:12.816Z,999.90
2022-10-05T16:41:50.102Z,926.77
2022-10-05T16:44:29.370Z,972.43
2022-10-05T16:47:04.059Z,999.90
2022-10-05T16:49:44.508Z,999.90
2022-10-05T16:52:18.901Z,999.90
2022-10-05T16:54:53.371Z,997.00
2022-10-05T16:57:25.444Z,788.53
2022-10-05T17:00:13.427Z,999.90
2022-10-05T17:02:56.701Z,999.90
2022-10-05T17:05:44.953Z,871.23
2022-10-05T17:08:36.600Z,606.70
2022-10-05T17:11:16.666Z,383.97
2022-10-05T17:14:11.144Z,196.87
2022-10-05T17:16:52.581Z,209.17
2022-10-05T17:19:42.995Z,191.33
2022-10-05T17:22:21.506Z,194.10
2022-10-05T17:24:59.029Z,173.53
2022-10-05T17:27:35.246Z,203.07
2022-10-05T17:30:39.183Z,106.63
2022-10-05T17:33:23.091Z,187.10
2022-10-05T17:36:12.431Z,113.00
2022-10-05T17:38:49.115Z,91.57
2022-10-05T17:41:25.051Z,76.40
2022-10-05T17:44:21.234Z,85.07
2022-10-05T17:46:52.554Z,232.30
2022-10-05T17:49:24.091Z,233.37
2022-10-05T17:52:22.679Z,161.80
2022-10-05T17:55:26.619Z,575.33
2022-10-05T17:58:00.571Z,729.13
2022-10-05T18:01:07.015Z,849.37
2022-10-05T18:03:40.902Z,729.93
2022-10-05T18:06:37.199Z,443.77
2022-10-05T18:09:39.062Z,545.23
2022-10-05T18:12:29.174Z,627.17
2022-10-05T18:15:01.534Z,696.53
2022-10-05T18:17:45.071Z,590.47
2022-10-05T18:20:42.778Z,608.77
2022-10-05T18:23:35.624Z,559.93
2022-10-05T18:26:09.157Z,377.90
2022-10-05T18:28:51.464Z,175.70
2022-10-05T18:31:31.975Z,138.37
2022-10-05T18:34:28.223Z,214.07
2022-10-05T18:37:10.202Z,225.60
2022-10-05T18:40:01.576Z,211.47
2022-10-05T18:42:38.825Z,160.50
2022-10-05T18:45:23.303Z,156.83
2022-10-05T18:48:07.693Z,164.73
2022-10-05T18:50:44.397Z,147.43
2022-10-05T18:53:27.137Z,53.17
2022-10-05T18:56:02.221Z,50.43
2022-10-05T18:58:37.053Z,108.60
2022-10-05T19:01:26.935Z,341.77
2022-10-05T19:04:05.931Z,227.93
2022-10-05T19:06:44.414Z,178.53
2022-10-05T19:09:26.177Z,85.40
2022-10-05T19:12:02.375Z,46.27
2022-10-05T19:15:06.953Z,35.73
2022-10-05T19:17:55.544Z,31.83
2022-10-05T19:20:30.599Z,22.67
2022-10-05T19:23:14.969Z,51.23
2022-10-05T19:25:53.076Z,38.30
2022-10-05T19:28:31.112Z,57.33
2022-10-05T19:31:14.547Z,60.13
2022-10-05T19:33:56.690Z,61.53
2022-10-05T19:36:45.365Z,44.47
2022-10-05T19:39:22.454Z,39.73
2022-10-05T19:42:07.893Z,36.40
2022-10-05T19:44:48.543Z,33.53
2022-10-05T19:47:28.273Z,33.97
2022-10-05T19:50:19.575Z,60.73
2022-10-05T19:52:52.239Z,57.23
2022-10-05T19:55:27.231Z,65.80
2022-10-05T19:58:01.232Z,61.93
2022-10-05T20:00:32.245Z,69.63
2022-10-05T20:03:12.992Z,65.77
2022-10-05T20:05:41.725Z,40.53
2022-10-05T20:08:17.021Z,33.87
2022-10-05T20:10:47.510Z,42.83
2022-10-05T20:13:22.682Z,63.47
2022-10-05T20:16:35.767Z,37.87
2022-10-05T20:19:22.781Z,41.13
2022-10-05T20:21:52.701Z,35.57
2022-10-05T20:24:22.341Z,38.03
2022-10-05T20:27:06.086Z,51.63
2022-10-05T20:29:37.878Z,31.67
2022-10-05T20:32:09.801Z,60.30
2022-10-05T20:34:41.299Z,28.13
2022-10-05T20:37:10.524Z,48.80
2022-10-05T20:39:39.278Z,43.87
2022-10-05T20:42:08.383Z,34.43
2022-10-05T20:44:38.808Z,39.20
2022-10-05T20:47:08.803Z,42.73
2022-10-05T20:49:40.996Z,61.93
2022-10-05T20:52:11.306Z,60.93
2022-10-05T20:54:40.327Z,27.47
2022-10-05T20:57:09.179Z,30.97
2022-10-05T20:59:38.735Z,50.37
2022-10-05T21:02:07.181Z,28.93
2022-10-05T21:04:42.921Z,30.63
2022-10-05T21:07:11.293Z,27.60
2022-10-05T21:09:40.922Z,22.27
2022-10-05T21:12:09.437Z,26.30
2022-10-05T21:14:40.557Z,42.77
2022-10-05T21:17:09.488Z,46.53
2022-10-05T21:19:40.487Z,37.27
2022-10-05T21:22:10.272Z,38.10
2022-10-05T21:24:39.485Z,39.43
2022-10-05T21:27:09.590Z,61.00
2022-10-05T21:29:41.030Z,52.27
2022-10-05T21:32:11.858Z,39.40
2022-10-05T21:34:40.657Z,64.87
2022-10-05T21:37:09.237Z,50.40
2022-10-05T21:39:37.352Z,51.67
2022-10-05T21:42:05.686Z,57.07
2022-10-05T21:44:33.830Z,57.30
2022-10-05T21:47:04.278Z,37.03
2022-10-05T21:49:32.690Z,49.20
2022-10-05T21:52:02.368Z,33.03
2022-10-05T21:54:30.789Z,58.77
2022-10-05T21:57:00.094Z,48.90
2022-10-05T21:59:32.306Z,46.23
2022-10-05T22:02:00.807Z,33.83
2022-10-05T22:04:30.353Z,30.77
2022-10-05T22:06:58.683Z,30.20
2022-10-05T22:09:27.162Z,39.43
2022-10-05T22:11:55.395Z,48.13
2022-10-05T22:14:23.928Z,45.13
2022-10-05T22:16:53.309Z,47.17
2022-10-05T22:19:21.785Z,54.43
2022-10-05T22:21:51.582Z,63.87
2022-10-05T22:24:19.840Z,75.97
2022-10-05T22:26:51.446Z,96.40
2022-10-05T22:29:20.374Z,96.77
2022-10-05T22:31:49.304Z,94.73
2022-10-05T22:34:18.166Z,72.70
2022-10-05T22:36:47.460Z,79.17
2022-10-05T22:39:17.303Z,69.10
2022-10-05T22:41:45.538Z,89.77
2022-10-05T22:44:13.760Z,112.13
2022-10-05T22:46:41.960Z,102.70
2022-10-05T22:49:10.034Z,121.80
2022-10-05T22:51:38.267Z,160.70
2022-10-05T22:54:07.082Z,184.07
2022-10-05T22:56:36.594Z,134.90
2022-10-05T22:59:04.905Z,111.87
2022-10-05T23:01:33.230Z,68.70
2022-10-05T23:04:01.512Z,70.50
2022-10-05T23:06:29.727Z,77.00
2022-10-05T23:08:57.976Z,78.53
2022-10-05T23:11:28.124Z,90.77
2022-10-05T23:13:58.593Z,117.17
2022-10-05T23:16:28.673Z,186.13
2022-10-05T23:18:57.493Z,253.70
2022-10-05T23:21:28.903Z,293.80
2022-10-05T23:23:56.937Z,283.57
2022-10-05T23:26:26.168Z,271.87
2022-10-05T23:28:54.923Z,229.80
2022-10-05T23:31:26.828Z,209.37
2022-10-05T23:33:55.153Z,164.43
2022-10-05T23:36:26.292Z,96.73
2022-10-05T23:38:54.961Z,69.73
2022-10-05T23:41:23.661Z,57.53
2022-10-05T23:43:54.674Z,53.37
2022-10-05T23:46:24.463Z,45.50
2022-10-05T23:48:53.126Z,72.03
2022-10-05T23:51:21.464Z,48.30
2022-10-05T23:53:49.625Z,75.83
2022-10-05T23:56:17.837Z,80.03
2022-10-05T23:58:46.148Z,73.43
